LHA302 CYXC-KRNT
Flight info
| Callsign | LHA302 |
|---|---|
| Flight time | N/A |
| Altitude | 38000 |
| Route | SILVR J505 TWISP DCT GLASR |
| Aircraft | A319/M-SDE1E2FGIJ1RWYZ/S |
Departure
| Time | 2026-04-21 16:26 |
|---|---|
| Airport | Cranbrook/Canadian Rockies International Airport (CYXC) |
Arrival
| Time | N/A |
|---|---|
| Airport | Renton Municipal Airport (KRNT) |
| Time | Latitude | Longitude | Altitude | Speed | Heading |
|---|---|---|---|---|---|
| 2026-04-21 16:10 | 49.61401 | -115.78523 | 3057 ft | 0 kts | 276° |
| 2026-04-21 16:21 | 49.61400 | -115.78505 | 3054 ft | 4 kts | 308° |
| 2026-04-21 16:21 | 49.61386 | -115.78501 | 3054 ft | 4 kts | 7° |
| 2026-04-21 16:21 | 49.61376 | -115.78502 | 3058 ft | 0 kts | 360° |
| 2026-04-21 16:23 | 49.61396 | -115.78502 | 3067 ft | 13 kts | 0° |
| 2026-04-21 16:23 | 49.61511 | -115.78444 | 3052 ft | 21 kts | 43° |
| 2026-04-21 16:24 | 49.61632 | -115.78259 | 3053 ft | 27 kts | 39° |
| 2026-04-21 16:24 | 49.61843 | -115.78225 | 3048 ft | 35 kts | 0° |
| 2026-04-21 16:24 | 49.62091 | -115.78232 | 3041 ft | 29 kts | 359° |
| 2026-04-21 16:24 | 49.62229 | -115.78242 | 3038 ft | 6 kts | 61° |
| 2026-04-21 16:25 | 49.62207 | -115.78229 | 3039 ft | 8 kts | 168° |
| 2026-04-21 16:25 | 49.62034 | -115.78223 | 3042 ft | 55 kts | 180° |
| 2026-04-21 16:25 | 49.61423 | -115.78212 | 3056 ft | 118 kts | 180° |
| 2026-04-21 16:25 | 49.60430 | -115.78195 | 3164 ft | 159 kts | 180° |
| 2026-04-21 16:26 | 49.59358 | -115.78184 | 3912 ft | 150 kts | 180° |
| 2026-04-21 16:26 | 49.58296 | -115.78154 | 4497 ft | 158 kts | 178° |
| 2026-04-21 16:26 | 49.57148 | -115.78112 | 4890 ft | 175 kts | 178° |
| 2026-04-21 16:26 | 49.55856 | -115.78083 | 5155 ft | 198 kts | 178° |
| 2026-04-21 16:27 | 49.54391 | -115.78050 | 5515 ft | 223 kts | 179° |
| 2026-04-21 16:27 | 49.52776 | -115.78015 | 5995 ft | 247 kts | 179° |
| 2026-04-21 16:27 | 49.50953 | -115.77975 | 6578 ft | 268 kts | 179° |
| 2026-04-21 16:27 | 49.49063 | -115.78088 | 7393 ft | 276 kts | 192° |
| 2026-04-21 16:28 | 49.47284 | -115.79210 | 8271 ft | 280 kts | 216° |
| 2026-04-21 16:28 | 49.45944 | -115.81319 | 9199 ft | 282 kts | 239° |
| 2026-04-21 16:28 | 49.45236 | -115.84120 | 10124 ft | 284 kts | 259° |
| 2026-04-21 16:28 | 49.44876 | -115.87220 | 10520 ft | 307 kts | 261° |
| 2026-04-21 16:29 | 49.44628 | -115.89462 | 10707 ft | 323 kts | 261° |
| 2026-04-21 16:29 | 49.44104 | -115.94176 | 10974 ft | 353 kts | 260° |
| 2026-04-21 16:29 | 49.43674 | -115.98020 | 11101 ft | 375 kts | 260° |
| 2026-04-21 16:29 | 49.43217 | -116.02049 | 11415 ft | 389 kts | 260° |
| 2026-04-21 16:30 | 49.42744 | -116.06158 | 12024 ft | 393 kts | 260° |
| 2026-04-21 16:30 | 49.42263 | -116.10299 | 12735 ft | 395 kts | 259° |
| 2026-04-21 16:30 | 49.41778 | -116.14469 | 13453 ft | 398 kts | 259° |
| 2026-04-21 16:30 | 49.41290 | -116.18655 | 14079 ft | 400 kts | 259° |
| 2026-04-21 16:31 | 49.40795 | -116.22875 | 14666 ft | 402 kts | 259° |
| 2026-04-21 16:31 | 49.40300 | -116.27113 | 15231 ft | 405 kts | 259° |
| 2026-04-21 16:31 | 49.39801 | -116.31384 | 15773 ft | 408 kts | 259° |
| 2026-04-21 16:31 | 49.39294 | -116.35687 | 16296 ft | 412 kts | 259° |
| 2026-04-21 16:32 | 49.38783 | -116.40026 | 16809 ft | 415 kts | 259° |
| 2026-04-21 16:32 | 49.38265 | -116.44395 | 17350 ft | 417 kts | 259° |
| 2026-04-21 16:32 | 49.37742 | -116.48781 | 17862 ft | 419 kts | 259° |
| 2026-04-21 16:32 | 49.37214 | -116.53199 | 18349 ft | 422 kts | 259° |
| 2026-04-21 16:33 | 49.36685 | -116.57639 | 18780 ft | 424 kts | 259° |
| 2026-04-21 16:33 | 49.36150 | -116.62103 | 19193 ft | 427 kts | 258° |
| 2026-04-21 16:33 | 49.35607 | -116.66586 | 19609 ft | 429 kts | 258° |
| 2026-04-21 16:33 | 49.35057 | -116.71101 | 20020 ft | 432 kts | 258° |
| 2026-04-21 16:34 | 49.34493 | -116.75639 | 20406 ft | 434 kts | 257° |
| 2026-04-21 16:34 | 49.33624 | -116.80071 | 20736 ft | 436 kts | 248° |
| 2026-04-21 16:34 | 49.32365 | -116.84316 | 21068 ft | 438 kts | 244° |
| 2026-04-21 16:34 | 49.31051 | -116.88539 | 21413 ft | 440 kts | 244° |
| 2026-04-21 16:35 | 49.29731 | -116.92786 | 21737 ft | 443 kts | 244° |
| 2026-04-21 16:35 | 49.28406 | -116.97057 | 22027 ft | 445 kts | 244° |
| 2026-04-21 16:35 | 49.27096 | -117.01282 | 22325 ft | 447 kts | 244° |
| 2026-04-21 16:35 | 49.25759 | -117.05593 | 22625 ft | 449 kts | 244° |
| 2026-04-21 16:36 | 49.24416 | -117.09918 | 22903 ft | 451 kts | 244° |
| 2026-04-21 16:36 | 49.23064 | -117.14256 | 23194 ft | 453 kts | 244° |
| 2026-04-21 16:36 | 49.21700 | -117.18613 | 23485 ft | 455 kts | 243° |
| 2026-04-21 16:36 | 49.20327 | -117.22978 | 23736 ft | 456 kts | 243° |
| 2026-04-21 16:37 | 49.18951 | -117.27345 | 24011 ft | 457 kts | 243° |
| 2026-04-21 16:37 | 49.17573 | -117.31721 | 24276 ft | 457 kts | 243° |
| 2026-04-21 16:37 | 49.16194 | -117.36101 | 24506 ft | 458 kts | 243° |
| 2026-04-21 16:37 | 49.14814 | -117.40481 | 24799 ft | 456 kts | 243° |
| 2026-04-21 16:38 | 49.13887 | -117.43420 | 25051 ft | 454 kts | 243° |
| 2026-04-21 16:38 | 49.12518 | -117.47755 | 25483 ft | 451 kts | 243° |
| 2026-04-21 16:38 | 49.11176 | -117.51997 | 25935 ft | 448 kts | 242° |
| 2026-04-21 16:38 | 49.09822 | -117.56261 | 26356 ft | 446 kts | 242° |
| 2026-04-21 16:39 | 49.08469 | -117.60507 | 26810 ft | 443 kts | 242° |
| 2026-04-21 16:39 | 49.07129 | -117.64713 | 27294 ft | 440 kts | 242° |
| 2026-04-21 16:39 | 49.05798 | -117.68890 | 27816 ft | 435 kts | 242° |
| 2026-04-21 16:39 | 49.04480 | -117.73016 | 28334 ft | 432 kts | 242° |
| 2026-04-21 16:40 | 49.03166 | -117.77112 | 28837 ft | 429 kts | 241° |
| 2026-04-21 16:40 | 49.01859 | -117.81174 | 29406 ft | 425 kts | 241° |
| 2026-04-21 16:40 | 49.00565 | -117.85200 | 29977 ft | 421 kts | 241° |
| 2026-04-21 16:40 | 48.99285 | -117.89185 | 30443 ft | 418 kts | 240° |
| 2026-04-21 16:41 | 48.98010 | -117.93153 | 30871 ft | 416 kts | 240° |
| 2026-04-21 16:41 | 48.96740 | -117.97100 | 31272 ft | 414 kts | 240° |
| 2026-04-21 16:41 | 48.95472 | -118.01028 | 31675 ft | 413 kts | 240° |
| 2026-04-21 16:41 | 48.94205 | -118.04935 | 32098 ft | 411 kts | 240° |
| 2026-04-21 16:42 | 48.92940 | -118.08830 | 32538 ft | 410 kts | 240° |
| 2026-04-21 16:42 | 48.91673 | -118.12704 | 32965 ft | 409 kts | 240° |
| 2026-04-21 16:42 | 48.90407 | -118.16566 | 33369 ft | 408 kts | 240° |
| 2026-04-21 16:42 | 48.89146 | -118.20413 | 33839 ft | 406 kts | 240° |
| 2026-04-21 16:43 | 48.87894 | -118.24241 | 34254 ft | 403 kts | 240° |
| 2026-04-21 16:43 | 48.86649 | -118.28047 | 34635 ft | 402 kts | 239° |
| 2026-04-21 16:43 | 48.85405 | -118.31841 | 34983 ft | 401 kts | 239° |
| 2026-04-21 16:43 | 48.84161 | -118.35625 | 35357 ft | 400 kts | 239° |
| 2026-04-21 16:44 | 48.82914 | -118.39407 | 35715 ft | 400 kts | 239° |
| 2026-04-21 16:44 | 48.81669 | -118.43174 | 36062 ft | 399 kts | 239° |
| 2026-04-21 16:44 | 48.80426 | -118.46927 | 36402 ft | 398 kts | 239° |
| 2026-04-21 16:44 | 48.79183 | -118.50678 | 36789 ft | 397 kts | 239° |
| 2026-04-21 16:45 | 48.77946 | -118.54420 | 37129 ft | 396 kts | 239° |
| 2026-04-21 16:45 | 48.76709 | -118.58151 | 37450 ft | 396 kts | 239° |
| 2026-04-21 16:45 | 48.75473 | -118.61871 | 37769 ft | 395 kts | 239° |
| 2026-04-21 16:46 | 48.72995 | -118.69302 | 37831 ft | 395 kts | 238° |
| 2026-04-21 16:46 | 48.70509 | -118.76720 | 37832 ft | 394 kts | 238° |
| 2026-04-21 16:47 | 48.68027 | -118.84121 | 37826 ft | 394 kts | 238° |
| 2026-04-21 16:47 | 48.65543 | -118.91524 | 37828 ft | 395 kts | 238° |
| 2026-04-21 16:48 | 48.63053 | -118.98914 | 37843 ft | 394 kts | 238° |
| 2026-04-21 16:48 | 48.60559 | -119.06299 | 37830 ft | 395 kts | 238° |
| 2026-04-21 16:49 | 48.58059 | -119.13680 | 37810 ft | 395 kts | 237° |
| 2026-04-21 16:49 | 48.55570 | -119.21014 | 37805 ft | 395 kts | 238° |
| 2026-04-21 16:50 | 48.53053 | -119.28382 | 37800 ft | 395 kts | 237° |
| 2026-04-21 16:50 | 48.50534 | -119.35750 | 37818 ft | 395 kts | 237° |
| 2026-04-21 16:51 | 48.48010 | -119.43113 | 37808 ft | 396 kts | 237° |
| 2026-04-21 16:51 | 48.45469 | -119.50474 | 37802 ft | 396 kts | 237° |
| 2026-04-21 16:52 | 48.42929 | -119.57831 | 37800 ft | 396 kts | 237° |
| 2026-04-21 16:52 | 48.40391 | -119.65189 | 37799 ft | 396 kts | 237° |
| 2026-04-21 16:53 | 48.37845 | -119.72535 | 37819 ft | 397 kts | 236° |
| 2026-04-21 16:53 | 48.35284 | -119.79887 | 37806 ft | 397 kts | 236° |
| 2026-04-21 16:54 | 48.32719 | -119.87249 | 37800 ft | 397 kts | 236° |
| 2026-04-21 16:54 | 48.30157 | -119.94607 | 37793 ft | 398 kts | 236° |
| 2026-04-21 16:55 | 48.27579 | -120.01961 | 37798 ft | 398 kts | 236° |
| 2026-04-21 16:55 | 48.24990 | -120.09297 | 37805 ft | 398 kts | 236° |
| 2026-04-21 16:56 | 48.22398 | -120.16635 | 37788 ft | 398 kts | 236° |
| 2026-04-21 16:56 | 48.19804 | -120.23984 | 37793 ft | 399 kts | 236° |
| 2026-04-21 16:57 | 48.17200 | -120.31334 | 37792 ft | 399 kts | 236° |
| 2026-04-21 16:57 | 48.14589 | -120.38675 | 37794 ft | 399 kts | 235° |
| 2026-04-21 16:58 | 48.11971 | -120.46016 | 37799 ft | 400 kts | 235° |
| 2026-04-21 16:58 | 48.09344 | -120.53361 | 37797 ft | 401 kts | 235° |
| 2026-04-21 16:59 | 48.06706 | -120.60707 | 37787 ft | 402 kts | 235° |
| 2026-04-21 16:59 | 48.04059 | -120.68060 | 37805 ft | 403 kts | 235° |
| 2026-04-21 17:00 | 48.01416 | -120.75427 | 37777 ft | 402 kts | 234° |
| 2026-04-21 17:00 | 47.99208 | -120.81544 | 37803 ft | 402 kts | 234° |
| 2026-04-21 17:01 | 47.96085 | -120.90116 | 37573 ft | 401 kts | 234° |